Terminal Aerodrome Forecast
Issued by NWS Albuquerque, NM

Home | Current Version | Previous Version | Text Only | Print | Product List | Glossary On
Versions: 1 2 3 4 5 6 7 8 9 10 11 12 13 14 15 16
561
FTUS45 KABQ 292122 AAB
TAFABQ
TAF AMD
KABQ 292122Z 2921/3018 22014G24KT P6SM VCSH SCT100 BKN130
      TEMPO 2922/2924 VRB25G35KT
     FM300300 08010KT P6SM SCT100 BKN130=

USA.gov is the U.S. government's official web portal to all federal, state and local government web resources and services.